sensor_id;sensor_type;location;lat;lon;timestamp;P1;durP1;ratioP1;P2;durP2;ratioP2
71800;SDS011;59647;55.838;37.292;2022-09-16T00:01:19;14.43;;;6.40;;
71800;SDS011;59647;55.838;37.292;2022-09-16T00:03:45;17.65;;;7.57;;
71800;SDS011;59647;55.838;37.292;2022-09-16T00:06:15;16.02;;;7.57;;
71800;SDS011;59647;55.838;37.292;2022-09-16T00:08:43;13.63;;;7.47;;
71800;SDS011;59647;55.838;37.292;2022-09-16T00:11:10;18.65;;;7.78;;
71800;SDS011;59647;55.838;37.292;2022-09-16T00:13:36;13.00;;;8.02;;
71800;SDS011;59647;55.838;37.292;2022-09-16T00:16:05;19.63;;;7.72;;
71800;SDS011;59647;55.838;37.292;2022-09-16T00:18:32;17.52;;;7.30;;
71800;SDS011;59647;55.838;37.292;2022-09-16T00:20:59;17.77;;;9.45;;
71800;SDS011;59647;55.838;37.292;2022-09-16T00:23:24;14.55;;;8.18;;
71800;SDS011;59647;55.838;37.292;2022-09-16T00:25:53;14.40;;;6.60;;
71800;SDS011;59647;55.838;37.292;2022-09-16T00:28:20;20.45;;;8.65;;
71800;SDS011;59647;55.838;37.292;2022-09-16T00:30:47;17.33;;;7.82;;
71800;SDS011;59647;55.838;37.292;2022-09-16T00:33:14;15.27;;;8.27;;
71800;SDS011;59647;55.838;37.292;2022-09-16T00:35:39;15.40;;;7.85;;
71800;SDS011;59647;55.838;37.292;2022-09-16T00:38:06;18.88;;;9.40;;
71800;SDS011;59647;55.838;37.292;2022-09-16T00:40:32;28.00;;;9.93;;
71800;SDS011;59647;55.838;37.292;2022-09-16T00:42:58;21.30;;;9.77;;
71800;SDS011;59647;55.838;37.292;2022-09-16T00:45:25;21.70;;;10.13;;
71800;SDS011;59647;55.838;37.292;2022-09-16T00:48:00;22.30;;;8.82;;
71800;SDS011;59647;55.838;37.292;2022-09-16T00:53:40;19.88;;;9.18;;
71800;SDS011;59647;55.838;37.292;2022-09-16T00:56:10;20.52;;;10.20;;
71800;SDS011;59647;55.838;37.292;2022-09-16T00:58:41;18.30;;;8.65;;
71800;SDS011;59647;55.838;37.292;2022-09-16T01:01:11;21.25;;;9.15;;
71800;SDS011;59647;55.838;37.292;2022-09-16T01:03:51;21.92;;;9.77;;
71800;SDS011;59647;55.838;37.292;2022-09-16T01:06:19;18.58;;;8.52;;
71800;SDS011;59647;55.838;37.292;2022-09-16T01:08:47;14.52;;;7.82;;
71800;SDS011;59647;55.838;37.292;2022-09-16T01:11:14;18.08;;;8.95;;
71800;SDS011;59647;55.838;37.292;2022-09-16T01:13:40;21.77;;;9.68;;
71800;SDS011;59647;55.838;37.292;2022-09-16T01:16:09;16.35;;;8.73;;
71800;SDS011;59647;55.838;37.292;2022-09-16T01:40:58;20.88;;;8.77;;
71800;SDS011;59647;55.838;37.292;2022-09-16T01:43:43;26.17;;;11.27;;
71800;SDS011;59647;55.838;37.292;2022-09-16T01:49:14;26.25;;;12.25;;
71800;SDS011;59647;55.838;37.292;2022-09-16T01:54:44;24.85;;;11.02;;
71800;SDS011;59647;55.838;37.292;2022-09-16T01:57:15;19.60;;;8.88;;
71800;SDS011;59647;55.838;37.292;2022-09-16T02:05:15;20.77;;;10.38;;
71800;SDS011;59647;55.838;37.292;2022-09-16T02:10:17;17.98;;;10.63;;
71800;SDS011;59647;55.838;37.292;2022-09-16T02:12:47;14.63;;;7.70;;
71800;SDS011;59647;55.838;37.292;2022-09-16T02:15:15;20.10;;;8.85;;
71800;SDS011;59647;55.838;37.292;2022-09-16T02:17:49;13.32;;;7.63;;
71800;SDS011;59647;55.838;37.292;2022-09-16T02:20:22;16.88;;;9.60;;
71800;SDS011;59647;55.838;37.292;2022-09-16T02:22:53;18.98;;;10.15;;
71800;SDS011;59647;55.838;37.292;2022-09-16T02:25:24;15.05;;;8.05;;
71800;SDS011;59647;55.838;37.292;2022-09-16T02:27:52;13.80;;;8.30;;
71800;SDS011;59647;55.838;37.292;2022-09-16T02:30:19;17.02;;;9.57;;
71800;SDS011;59647;55.838;37.292;2022-09-16T02:32:57;15.60;;;8.43;;
71800;SDS011;59647;55.838;37.292;2022-09-16T02:35:28;19.42;;;9.60;;
71800;SDS011;59647;55.838;37.292;2022-09-16T02:37:59;18.33;;;8.23;;
71800;SDS011;59647;55.838;37.292;2022-09-16T02:40:36;15.32;;;7.75;;
71800;SDS011;59647;55.838;37.292;2022-09-16T02:43:08;17.95;;;8.43;;
71800;SDS011;59647;55.838;37.292;2022-09-16T02:45:45;19.35;;;7.93;;
71800;SDS011;59647;55.838;37.292;2022-09-16T02:48:18;15.00;;;7.63;;
71800;SDS011;59647;55.838;37.292;2022-09-16T02:51:38;24.70;;;9.25;;
71800;SDS011;59647;55.838;37.292;2022-09-16T02:54:24;19.95;;;8.18;;
71800;SDS011;59647;55.838;37.292;2022-09-16T02:57:06;16.08;;;8.52;;
71800;SDS011;59647;55.838;37.292;2022-09-16T02:59:33;17.23;;;8.30;;
71800;SDS011;59647;55.838;37.292;2022-09-16T03:01:59;14.77;;;7.82;;
71800;SDS011;59647;55.838;37.292;2022-09-16T03:04:25;15.60;;;7.97;;
71800;SDS011;59647;55.838;37.292;2022-09-16T03:06:52;14.90;;;8.13;;
71800;SDS011;59647;55.838;37.292;2022-09-16T03:09:18;18.42;;;7.47;;
71800;SDS011;59647;55.838;37.292;2022-09-16T03:22:50;13.27;;;7.40;;
71800;SDS011;59647;55.838;37.292;2022-09-16T03:28:01;15.25;;;7.03;;
71800;SDS011;59647;55.838;37.292;2022-09-16T03:30:41;15.73;;;7.60;;
71800;SDS011;59647;55.838;37.292;2022-09-16T03:33:26;12.82;;;6.32;;
71800;SDS011;59647;55.838;37.292;2022-09-16T03:36:00;16.08;;;7.13;;
71800;SDS011;59647;55.838;37.292;2022-09-16T03:38:30;16.00;;;7.07;;
71800;SDS011;59647;55.838;37.292;2022-09-16T03:41:00;16.08;;;7.72;;
71800;SDS011;59647;55.838;37.292;2022-09-16T03:43:28;16.73;;;7.10;;
71800;SDS011;59647;55.838;37.292;2022-09-16T03:45:54;13.60;;;6.93;;
71800;SDS011;59647;55.838;37.292;2022-09-16T03:48:20;15.93;;;7.15;;
71800;SDS011;59647;55.838;37.292;2022-09-16T03:50:45;18.20;;;7.20;;
71800;SDS011;59647;55.838;37.292;2022-09-16T03:53:11;11.63;;;6.90;;
71800;SDS011;59647;55.838;37.292;2022-09-16T03:55:37;15.30;;;6.75;;
71800;SDS011;59647;55.838;37.292;2022-09-16T03:58:03;15.40;;;7.75;;
71800;SDS011;59647;55.838;37.292;2022-09-16T04:00:29;39.35;;;18.52;;
71800;SDS011;59647;55.838;37.292;2022-09-16T04:02:55;18.88;;;8.77;;
71800;SDS011;59647;55.838;37.292;2022-09-16T04:05:21;19.67;;;8.80;;
71800;SDS011;59647;55.838;37.292;2022-09-16T04:07:47;20.00;;;9.55;;
71800;SDS011;59647;55.838;37.292;2022-09-16T04:10:14;21.95;;;9.60;;
71800;SDS011;59647;55.838;37.292;2022-09-16T04:12:40;18.83;;;8.73;;
71800;SDS011;59647;55.838;37.292;2022-09-16T04:15:06;17.17;;;7.50;;
71800;SDS011;59647;55.838;37.292;2022-09-16T04:17:32;15.68;;;7.60;;
71800;SDS011;59647;55.838;37.292;2022-09-16T04:19:58;14.57;;;7.15;;
71800;SDS011;59647;55.838;37.292;2022-09-16T04:22:26;16.02;;;7.72;;
71800;SDS011;59647;55.838;37.292;2022-09-16T04:24:54;15.90;;;7.55;;
71800;SDS011;59647;55.838;37.292;2022-09-16T04:27:20;16.73;;;6.80;;
71800;SDS011;59647;55.838;37.292;2022-09-16T04:29:46;12.13;;;6.95;;
71800;SDS011;59647;55.838;37.292;2022-09-16T04:32:12;12.27;;;5.93;;
71800;SDS011;59647;55.838;37.292;2022-09-16T04:34:38;17.00;;;8.13;;
71800;SDS011;59647;55.838;37.292;2022-09-16T04:37:04;14.27;;;6.60;;
71800;SDS011;59647;55.838;37.292;2022-09-16T04:39:30;12.63;;;7.25;;
71800;SDS011;59647;55.838;37.292;2022-09-16T04:41:56;13.00;;;7.60;;
71800;SDS011;59647;55.838;37.292;2022-09-16T04:44:22;15.40;;;7.97;;
71800;SDS011;59647;55.838;37.292;2022-09-16T04:46:47;14.10;;;6.78;;
71800;SDS011;59647;55.838;37.292;2022-09-16T04:49:13;14.38;;;6.47;;
71800;SDS011;59647;55.838;37.292;2022-09-16T04:51:39;12.45;;;6.85;;
71800;SDS011;59647;55.838;37.292;2022-09-16T04:54:05;17.58;;;7.78;;
71800;SDS011;59647;55.838;37.292;2022-09-16T04:56:31;13.60;;;7.50;;
71800;SDS011;59647;55.838;37.292;2022-09-16T04:58:58;16.75;;;7.10;;
71800;SDS011;59647;55.838;37.292;2022-09-16T05:01:26;12.13;;;6.57;;
71800;SDS011;59647;55.838;37.292;2022-09-16T05:03:54;12.85;;;6.55;;
71800;SDS011;59647;55.838;37.292;2022-09-16T05:06:23;17.02;;;7.93;;
71800;SDS011;59647;55.838;37.292;2022-09-16T05:08:51;11.80;;;6.22;;
71800;SDS011;59647;55.838;37.292;2022-09-16T05:11:19;13.40;;;7.82;;
71800;SDS011;59647;55.838;37.292;2022-09-16T05:13:47;18.50;;;8.20;;
71800;SDS011;59647;55.838;37.292;2022-09-16T05:16:14;28.10;;;8.60;;
71800;SDS011;59647;55.838;37.292;2022-09-16T05:18:42;15.18;;;7.22;;
71800;SDS011;59647;55.838;37.292;2022-09-16T05:21:09;13.93;;;6.30;;
71800;SDS011;59647;55.838;37.292;2022-09-16T05:23:37;16.38;;;7.43;;
71800;SDS011;59647;55.838;37.292;2022-09-16T05:26:06;15.60;;;7.75;;
71800;SDS011;59647;55.838;37.292;2022-09-16T05:28:33;13.05;;;6.55;;
71800;SDS011;59647;55.838;37.292;2022-09-16T05:31:34;13.80;;;6.55;;
71800;SDS011;59647;55.838;37.292;2022-09-16T05:34:00;12.98;;;6.68;;
71800;SDS011;59647;55.838;37.292;2022-09-16T05:36:41;14.27;;;7.28;;
71800;SDS011;59647;55.838;37.292;2022-09-16T05:39:08;12.68;;;6.65;;
71800;SDS011;59647;55.838;37.292;2022-09-16T05:41:36;11.95;;;6.97;;
71800;SDS011;59647;55.838;37.292;2022-09-16T05:44:02;14.40;;;7.28;;
71800;SDS011;59647;55.838;37.292;2022-09-16T05:46:30;17.15;;;7.60;;
71800;SDS011;59647;55.838;37.292;2022-09-16T05:48:56;17.40;;;7.78;;
71800;SDS011;59647;55.838;37.292;2022-09-16T05:51:23;12.70;;;7.05;;
71800;SDS011;59647;55.838;37.292;2022-09-16T05:53:50;12.43;;;6.72;;
71800;SDS011;59647;55.838;37.292;2022-09-16T05:56:23;15.25;;;7.72;;
71800;SDS011;59647;55.838;37.292;2022-09-16T05:58:54;15.40;;;6.53;;
71800;SDS011;59647;55.838;37.292;2022-09-16T06:01:22;17.40;;;7.63;;
71800;SDS011;59647;55.838;37.292;2022-09-16T06:03:52;13.43;;;7.93;;
71800;SDS011;59647;55.838;37.292;2022-09-16T06:06:26;14.00;;;7.68;;
71800;SDS011;59647;55.838;37.292;2022-09-16T06:08:56;12.98;;;7.28;;
71800;SDS011;59647;55.838;37.292;2022-09-16T06:11:28;18.83;;;8.50;;
71800;SDS011;59647;55.838;37.292;2022-09-16T06:13:55;18.33;;;8.20;;
71800;SDS011;59647;55.838;37.292;2022-09-16T06:16:23;13.88;;;7.28;;
71800;SDS011;59647;55.838;37.292;2022-09-16T06:18:50;17.85;;;7.57;;
71800;SDS011;59647;55.838;37.292;2022-09-16T06:21:17;15.65;;;9.13;;
71800;SDS011;59647;55.838;37.292;2022-09-16T06:23:43;19.73;;;8.35;;
71800;SDS011;59647;55.838;37.292;2022-09-16T06:26:11;17.35;;;7.50;;
71800;SDS011;59647;55.838;37.292;2022-09-16T06:28:41;14.20;;;8.25;;
71800;SDS011;59647;55.838;37.292;2022-09-16T06:31:10;16.30;;;7.60;;
71800;SDS011;59647;55.838;37.292;2022-09-16T06:33:37;17.92;;;8.50;;
71800;SDS011;59647;55.838;37.292;2022-09-16T06:36:04;12.95;;;6.88;;
71800;SDS011;59647;55.838;37.292;2022-09-16T06:38:36;15.95;;;7.78;;
71800;SDS011;59647;55.838;37.292;2022-09-16T06:41:04;18.83;;;8.13;;
71800;SDS011;59647;55.838;37.292;2022-09-16T06:43:31;14.60;;;7.00;;
71800;SDS011;59647;55.838;37.292;2022-09-16T06:45:58;13.65;;;6.57;;
71800;SDS011;59647;55.838;37.292;2022-09-16T06:48:26;13.40;;;6.80;;
71800;SDS011;59647;55.838;37.292;2022-09-16T06:50:59;16.38;;;7.88;;
71800;SDS011;59647;55.838;37.292;2022-09-16T06:53:26;15.13;;;7.65;;
71800;SDS011;59647;55.838;37.292;2022-09-16T06:55:52;15.18;;;8.05;;
71800;SDS011;59647;55.838;37.292;2022-09-16T06:58:18;13.05;;;7.57;;
71800;SDS011;59647;55.838;37.292;2022-09-16T07:00:44;14.68;;;7.45;;
71800;SDS011;59647;55.838;37.292;2022-09-16T07:03:10;15.98;;;7.35;;
71800;SDS011;59647;55.838;37.292;2022-09-16T07:05:36;15.73;;;7.72;;
71800;SDS011;59647;55.838;37.292;2022-09-16T07:08:02;15.02;;;8.48;;
71800;SDS011;59647;55.838;37.292;2022-09-16T07:10:27;15.02;;;7.88;;
71800;SDS011;59647;55.838;37.292;2022-09-16T07:12:54;15.40;;;8.23;;
71800;SDS011;59647;55.838;37.292;2022-09-16T07:15:20;20.95;;;7.53;;
71800;SDS011;59647;55.838;37.292;2022-09-16T07:17:46;15.90;;;8.07;;
71800;SDS011;59647;55.838;37.292;2022-09-16T07:20:12;13.93;;;7.57;;
71800;SDS011;59647;55.838;37.292;2022-09-16T07:22:38;17.83;;;9.45;;
71800;SDS011;59647;55.838;37.292;2022-09-16T07:25:04;21.75;;;8.30;;
71800;SDS011;59647;55.838;37.292;2022-09-16T07:27:30;12.85;;;7.47;;
71800;SDS011;59647;55.838;37.292;2022-09-16T07:29:56;16.52;;;9.15;;
71800;SDS011;59647;55.838;37.292;2022-09-16T07:32:22;17.27;;;8.43;;
71800;SDS011;59647;55.838;37.292;2022-09-16T07:34:50;15.57;;;8.40;;
71800;SDS011;59647;55.838;37.292;2022-09-16T07:37:18;21.45;;;9.98;;
71800;SDS011;59647;55.838;37.292;2022-09-16T07:39:44;20.52;;;10.68;;
71800;SDS011;59647;55.838;37.292;2022-09-16T07:42:10;21.05;;;9.55;;
71800;SDS011;59647;55.838;37.292;2022-09-16T07:44:35;19.00;;;8.82;;
71800;SDS011;59647;55.838;37.292;2022-09-16T07:47:01;18.10;;;8.88;;
71800;SDS011;59647;55.838;37.292;2022-09-16T07:49:27;16.77;;;7.82;;
71800;SDS011;59647;55.838;37.292;2022-09-16T07:51:53;14.45;;;8.73;;
71800;SDS011;59647;55.838;37.292;2022-09-16T07:54:20;16.55;;;8.52;;
71800;SDS011;59647;55.838;37.292;2022-09-16T07:56:46;13.50;;;7.88;;
71800;SDS011;59647;55.838;37.292;2022-09-16T07:59:13;15.27;;;9.38;;
71800;SDS011;59647;55.838;37.292;2022-09-16T08:01:41;20.45;;;9.25;;
71800;SDS011;59647;55.838;37.292;2022-09-16T08:04:09;19.95;;;8.48;;
71800;SDS011;59647;55.838;37.292;2022-09-16T08:06:36;18.23;;;8.63;;
71800;SDS011;59647;55.838;37.292;2022-09-16T08:09:03;18.20;;;10.02;;
71800;SDS011;59647;55.838;37.292;2022-09-16T08:11:29;18.27;;;8.43;;
71800;SDS011;59647;55.838;37.292;2022-09-16T08:13:59;22.60;;;9.70;;
71800;SDS011;59647;55.838;37.292;2022-09-16T08:16:26;19.17;;;9.10;;
71800;SDS011;59647;55.838;37.292;2022-09-16T08:18:53;17.80;;;9.15;;
71800;SDS011;59647;55.838;37.292;2022-09-16T08:21:21;13.40;;;7.30;;
71800;SDS011;59647;55.838;37.292;2022-09-16T08:23:49;14.57;;;8.25;;
71800;SDS011;59647;55.838;37.292;2022-09-16T08:26:16;14.55;;;8.60;;
71800;SDS011;59647;55.838;37.292;2022-09-16T08:28:43;17.23;;;8.45;;
71800;SDS011;59647;55.838;37.292;2022-09-16T08:31:10;10.57;;;6.35;;
71800;SDS011;59647;55.838;37.292;2022-09-16T08:33:39;15.73;;;8.43;;
71800;SDS011;59647;55.838;37.292;2022-09-16T08:36:07;12.35;;;8.02;;
71800;SDS011;59647;55.838;37.292;2022-09-16T08:38:35;11.35;;;7.28;;
71800;SDS011;59647;55.838;37.292;2022-09-16T08:46:46;14.43;;;7.05;;
71800;SDS011;59647;55.838;37.292;2022-09-16T08:51:57;14.70;;;6.40;;
71800;SDS011;59647;55.838;37.292;2022-09-16T08:54:29;11.10;;;6.95;;
71800;SDS011;59647;55.838;37.292;2022-09-16T08:57:17;11.55;;;7.10;;
71800;SDS011;59647;55.838;37.292;2022-09-16T08:59:47;14.57;;;6.25;;
71800;SDS011;59647;55.838;37.292;2022-09-16T09:05:13;13.82;;;7.03;;
71800;SDS011;59647;55.838;37.292;2022-09-16T09:10:27;14.05;;;6.55;;
71800;SDS011;59647;55.838;37.292;2022-09-16T09:13:23;9.63;;;5.85;;
71800;SDS011;59647;55.838;37.292;2022-09-16T09:43:01;9.32;;;5.70;;
71800;SDS011;59647;55.838;37.292;2022-09-16T09:48:48;11.90;;;6.30;;
71800;SDS011;59647;55.838;37.292;2022-09-16T09:56:49;9.05;;;5.35;;
71800;SDS011;59647;55.838;37.292;2022-09-16T10:02:16;12.77;;;7.07;;
71800;SDS011;59647;55.838;37.292;2022-09-16T10:04:44;10.27;;;5.97;;
71800;SDS011;59647;55.838;37.292;2022-09-16T10:07:14;10.70;;;6.50;;
71800;SDS011;59647;55.838;37.292;2022-09-16T10:09:55;9.30;;;5.50;;
71800;SDS011;59647;55.838;37.292;2022-09-16T10:12:26;9.80;;;5.03;;
71800;SDS011;59647;55.838;37.292;2022-09-16T10:14:55;11.82;;;5.35;;
71800;SDS011;59647;55.838;37.292;2022-09-16T10:17:21;11.65;;;5.47;;
71800;SDS011;59647;55.838;37.292;2022-09-16T10:19:51;10.82;;;5.47;;
71800;SDS011;59647;55.838;37.292;2022-09-16T10:22:25;11.73;;;5.60;;
71800;SDS011;59647;55.838;37.292;2022-09-16T10:24:55;11.63;;;6.38;;
71800;SDS011;59647;55.838;37.292;2022-09-16T10:27:26;11.18;;;6.38;;
71800;SDS011;59647;55.838;37.292;2022-09-16T10:30:17;9.63;;;5.40;;
71800;SDS011;59647;55.838;37.292;2022-09-16T10:32:59;12.10;;;5.20;;
71800;SDS011;59647;55.838;37.292;2022-09-16T10:35:37;11.52;;;5.63;;
71800;SDS011;59647;55.838;37.292;2022-09-16T10:38:17;10.98;;;5.97;;
71800;SDS011;59647;55.838;37.292;2022-09-16T10:40:52;15.82;;;6.57;;
71800;SDS011;59647;55.838;37.292;2022-09-16T10:43:26;12.25;;;6.40;;
71800;SDS011;59647;55.838;37.292;2022-09-16T10:45:53;12.55;;;6.32;;
71800;SDS011;59647;55.838;37.292;2022-09-16T10:48:21;13.15;;;6.65;;
71800;SDS011;59647;55.838;37.292;2022-09-16T10:50:51;11.60;;;5.65;;
71800;SDS011;59647;55.838;37.292;2022-09-16T10:53:31;13.00;;;7.13;;
71800;SDS011;59647;55.838;37.292;2022-09-16T10:56:00;14.45;;;5.63;;
71800;SDS011;59647;55.838;37.292;2022-09-16T10:58:28;9.65;;;5.75;;
71800;SDS011;59647;55.838;37.292;2022-09-16T11:19:04;12.20;;;7.43;;
71800;SDS011;59647;55.838;37.292;2022-09-16T11:39:08;19.45;;;7.57;;
71800;SDS011;59647;55.838;37.292;2022-09-16T11:41:47;16.88;;;8.02;;
71800;SDS011;59647;55.838;37.292;2022-09-16T11:44:37;13.95;;;7.35;;
71800;SDS011;59647;55.838;37.292;2022-09-16T11:57:45;19.27;;;8.35;;
71800;SDS011;59647;55.838;37.292;2022-09-16T12:00:22;14.18;;;7.55;;
71800;SDS011;59647;55.838;37.292;2022-09-16T12:10:52;14.20;;;7.60;;
71800;SDS011;59647;55.838;37.292;2022-09-16T12:13:28;15.13;;;7.40;;
71800;SDS011;59647;55.838;37.292;2022-09-16T12:16:04;13.90;;;7.35;;
71800;SDS011;59647;55.838;37.292;2022-09-16T12:18:35;14.45;;;7.57;;
71800;SDS011;59647;55.838;37.292;2022-09-16T12:23:55;13.13;;;7.43;;
71800;SDS011;59647;55.838;37.292;2022-09-16T12:29:04;13.00;;;7.47;;
71800;SDS011;59647;55.838;37.292;2022-09-16T12:31:39;14.48;;;7.30;;
71800;SDS011;59647;55.838;37.292;2022-09-16T12:34:16;17.05;;;7.15;;
71800;SDS011;59647;55.838;37.292;2022-09-16T12:36:45;12.07;;;6.53;;
71800;SDS011;59647;55.838;37.292;2022-09-16T12:39:14;16.40;;;7.63;;
71800;SDS011;59647;55.838;37.292;2022-09-16T13:04:08;21.98;;;10.20;;
71800;SDS011;59647;55.838;37.292;2022-09-16T13:06:44;15.93;;;8.73;;
71800;SDS011;59647;55.838;37.292;2022-09-16T13:09:19;16.38;;;8.77;;
71800;SDS011;59647;55.838;37.292;2022-09-16T13:11:56;16.20;;;8.32;;
71800;SDS011;59647;55.838;37.292;2022-09-16T13:14:26;21.17;;;8.73;;
71800;SDS011;59647;55.838;37.292;2022-09-16T13:16:57;14.45;;;7.90;;
71800;SDS011;59647;55.838;37.292;2022-09-16T13:22:14;16.77;;;7.63;;
71800;SDS011;59647;55.838;37.292;2022-09-16T13:24:48;16.58;;;8.00;;
71800;SDS011;59647;55.838;37.292;2022-09-16T13:27:23;16.67;;;7.78;;
71800;SDS011;59647;55.838;37.292;2022-09-16T13:29:51;14.10;;;7.82;;
71800;SDS011;59647;55.838;37.292;2022-09-16T13:32:55;15.43;;;7.30;;
71800;SDS011;59647;55.838;37.292;2022-09-16T13:35:34;17.98;;;7.47;;
71800;SDS011;59647;55.838;37.292;2022-09-16T13:38:09;16.38;;;7.95;;
71800;SDS011;59647;55.838;37.292;2022-09-16T13:40:55;15.73;;;7.20;;
71800;SDS011;59647;55.838;37.292;2022-09-16T13:46:08;16.35;;;7.43;;
71800;SDS011;59647;55.838;37.292;2022-09-16T13:48:44;16.38;;;7.60;;
71800;SDS011;59647;55.838;37.292;2022-09-16T13:51:42;14.50;;;7.57;;
71800;SDS011;59647;55.838;37.292;2022-09-16T13:54:30;19.42;;;8.05;;
71800;SDS011;59647;55.838;37.292;2022-09-16T14:02:57;17.48;;;9.70;;
71800;SDS011;59647;55.838;37.292;2022-09-16T14:13:37;15.63;;;8.82;;
71800;SDS011;59647;55.838;37.292;2022-09-16T14:16:14;22.73;;;9.75;;
71800;SDS011;59647;55.838;37.292;2022-09-16T14:18:52;18.50;;;8.50;;
71800;SDS011;59647;55.838;37.292;2022-09-16T14:21:31;14.98;;;6.88;;
71800;SDS011;59647;55.838;37.292;2022-09-16T14:26:51;12.43;;;7.18;;
71800;SDS011;59647;55.838;37.292;2022-09-16T14:29:18;12.50;;;7.93;;
71800;SDS011;59647;55.838;37.292;2022-09-16T14:31:45;11.88;;;6.32;;
71800;SDS011;59647;55.838;37.292;2022-09-16T14:34:29;17.45;;;7.50;;
71800;SDS011;59647;55.838;37.292;2022-09-16T14:36:58;15.02;;;8.00;;
71800;SDS011;59647;55.838;37.292;2022-09-16T14:39:25;13.23;;;6.75;;
71800;SDS011;59647;55.838;37.292;2022-09-16T14:41:56;11.10;;;6.45;;
71800;SDS011;59647;55.838;37.292;2022-09-16T14:47:04;19.40;;;7.13;;
71800;SDS011;59647;55.838;37.292;2022-09-16T14:49:34;10.38;;;6.10;;
71800;SDS011;59647;55.838;37.292;2022-09-16T14:52:01;18.02;;;7.88;;
71800;SDS011;59647;55.838;37.292;2022-09-16T14:54:28;12.73;;;7.05;;
71800;SDS011;59647;55.838;37.292;2022-09-16T14:59:26;16.88;;;9.30;;
71800;SDS011;59647;55.838;37.292;2022-09-16T15:01:56;9.55;;;5.60;;
71800;SDS011;59647;55.838;37.292;2022-09-16T15:04:28;9.90;;;5.40;;
71800;SDS011;59647;55.838;37.292;2022-09-16T15:07:00;13.48;;;5.75;;
71800;SDS011;59647;55.838;37.292;2022-09-16T15:12:18;65.80;;;25.13;;
71800;SDS011;59647;55.838;37.292;2022-09-16T15:14:48;36.58;;;17.23;;
71800;SDS011;59647;55.838;37.292;2022-09-16T15:17:15;53.90;;;21.33;;
71800;SDS011;59647;55.838;37.292;2022-09-16T15:19:47;40.38;;;15.32;;
71800;SDS011;59647;55.838;37.292;2022-09-16T15:22:17;34.70;;;13.75;;
71800;SDS011;59647;55.838;37.292;2022-09-16T15:24:50;91.72;;;36.53;;
71800;SDS011;59647;55.838;37.292;2022-09-16T15:27:24;44.67;;;18.83;;
71800;SDS011;59647;55.838;37.292;2022-09-16T15:29:55;40.75;;;16.17;;
71800;SDS011;59647;55.838;37.292;2022-09-16T15:32:24;109.20;;;43.53;;
71800;SDS011;59647;55.838;37.292;2022-09-16T15:35:07;168.07;;;71.75;;
71800;SDS011;59647;55.838;37.292;2022-09-16T15:37:35;73.78;;;31.42;;
71800;SDS011;59647;55.838;37.292;2022-09-16T15:40:21;73.28;;;35.40;;
71800;SDS011;59647;55.838;37.292;2022-09-16T15:42:48;59.28;;;26.80;;
71800;SDS011;59647;55.838;37.292;2022-09-16T15:45:43;28.55;;;14.85;;
71800;SDS011;59647;55.838;37.292;2022-09-16T15:48:21;34.60;;;19.33;;
71800;SDS011;59647;55.838;37.292;2022-09-16T15:50:50;27.67;;;14.15;;
71800;SDS011;59647;55.838;37.292;2022-09-16T15:55:59;48.80;;;21.60;;
71800;SDS011;59647;55.838;37.292;2022-09-16T15:58:33;29.20;;;14.57;;
71800;SDS011;59647;55.838;37.292;2022-09-16T16:01:12;106.28;;;51.55;;
71800;SDS011;59647;55.838;37.292;2022-09-16T16:04:01;85.22;;;44.22;;
71800;SDS011;59647;55.838;37.292;2022-09-16T16:14:42;28.40;;;12.70;;
71800;SDS011;59647;55.838;37.292;2022-09-16T16:17:26;14.57;;;9.45;;
71800;SDS011;59647;55.838;37.292;2022-09-16T16:19:52;19.70;;;11.33;;
71800;SDS011;59647;55.838;37.292;2022-09-16T16:22:20;74.80;;;31.48;;
71800;SDS011;59647;55.838;37.292;2022-09-16T16:24:46;122.47;;;52.22;;
71800;SDS011;59647;55.838;37.292;2022-09-16T16:27:12;58.20;;;27.98;;
71800;SDS011;59647;55.838;37.292;2022-09-16T16:29:38;137.82;;;64.28;;
71800;SDS011;59647;55.838;37.292;2022-09-16T16:32:06;51.85;;;25.02;;
71800;SDS011;59647;55.838;37.292;2022-09-16T16:34:40;89.25;;;37.50;;
71800;SDS011;59647;55.838;37.292;2022-09-16T16:37:08;238.95;;;85.57;;
71800;SDS011;59647;55.838;37.292;2022-09-16T16:39:35;118.03;;;42.38;;
71800;SDS011;59647;55.838;37.292;2022-09-16T16:42:02;176.13;;;65.70;;
71800;SDS011;59647;55.838;37.292;2022-09-16T16:44:30;90.25;;;40.72;;
71800;SDS011;59647;55.838;37.292;2022-09-16T16:46:57;60.30;;;28.30;;
71800;SDS011;59647;55.838;37.292;2022-09-16T16:49:23;50.90;;;24.92;;
71800;SDS011;59647;55.838;37.292;2022-09-16T16:51:50;42.78;;;21.63;;
71800;SDS011;59647;55.838;37.292;2022-09-16T16:54:17;22.38;;;11.20;;
71800;SDS011;59647;55.838;37.292;2022-09-16T16:56:44;26.02;;;17.27;;
71800;SDS011;59647;55.838;37.292;2022-09-16T16:59:11;19.75;;;11.20;;
71800;SDS011;59647;55.838;37.292;2022-09-16T17:01:38;20.38;;;12.93;;
71800;SDS011;59647;55.838;37.292;2022-09-16T17:04:05;18.38;;;12.23;;
71800;SDS011;59647;55.838;37.292;2022-09-16T17:06:32;16.08;;;9.48;;
71800;SDS011;59647;55.838;37.292;2022-09-16T17:08:59;15.60;;;9.40;;
71800;SDS011;59647;55.838;37.292;2022-09-16T17:11:26;16.58;;;9.38;;
71800;SDS011;59647;55.838;37.292;2022-09-16T17:13:55;15.88;;;9.07;;
71800;SDS011;59647;55.838;37.292;2022-09-16T17:16:24;12.68;;;8.88;;
71800;SDS011;59647;55.838;37.292;2022-09-16T17:18:54;14.65;;;8.85;;
71800;SDS011;59647;55.838;37.292;2022-09-16T17:21:23;12.93;;;7.03;;
71800;SDS011;59647;55.838;37.292;2022-09-16T17:23:54;14.35;;;8.23;;
71800;SDS011;59647;55.838;37.292;2022-09-16T17:26:20;18.52;;;11.55;;
71800;SDS011;59647;55.838;37.292;2022-09-16T17:28:48;16.48;;;9.13;;
71800;SDS011;59647;55.838;37.292;2022-09-16T17:33:48;15.18;;;9.02;;
71800;SDS011;59647;55.838;37.292;2022-09-16T17:36:17;13.45;;;8.32;;
71800;SDS011;59647;55.838;37.292;2022-09-16T17:38:45;16.60;;;8.73;;
71800;SDS011;59647;55.838;37.292;2022-09-16T17:41:12;15.93;;;9.10;;
71800;SDS011;59647;55.838;37.292;2022-09-16T17:43:40;12.30;;;8.23;;
71800;SDS011;59647;55.838;37.292;2022-09-16T17:46:10;13.00;;;8.70;;
71800;SDS011;59647;55.838;37.292;2022-09-16T17:48:38;13.70;;;9.07;;
71800;SDS011;59647;55.838;37.292;2022-09-16T17:51:04;16.15;;;9.15;;
71800;SDS011;59647;55.838;37.292;2022-09-16T17:53:32;13.30;;;7.50;;
71800;SDS011;59647;55.838;37.292;2022-09-16T17:56:09;13.70;;;7.72;;
71800;SDS011;59647;55.838;37.292;2022-09-16T17:58:40;13.32;;;8.40;;
71800;SDS011;59647;55.838;37.292;2022-09-16T18:01:11;15.43;;;7.55;;
71800;SDS011;59647;55.838;37.292;2022-09-16T18:03:39;13.38;;;8.50;;
71800;SDS011;59647;55.838;37.292;2022-09-16T18:06:11;15.07;;;9.90;;
71800;SDS011;59647;55.838;37.292;2022-09-16T18:08:38;14.15;;;8.20;;
71800;SDS011;59647;55.838;37.292;2022-09-16T18:11:05;16.15;;;8.43;;
71800;SDS011;59647;55.838;37.292;2022-09-16T18:13:35;16.52;;;8.80;;
71800;SDS011;59647;55.838;37.292;2022-09-16T18:16:06;15.25;;;8.73;;
71800;SDS011;59647;55.838;37.292;2022-09-16T18:18:33;13.57;;;8.23;;
71800;SDS011;59647;55.838;37.292;2022-09-16T18:21:01;12.98;;;7.53;;
71800;SDS011;59647;55.838;37.292;2022-09-16T18:23:28;13.02;;;8.25;;
71800;SDS011;59647;55.838;37.292;2022-09-16T18:25:55;16.45;;;10.25;;
71800;SDS011;59647;55.838;37.292;2022-09-16T18:28:21;12.75;;;7.35;;